createdAt,value
2022-10-07T00:01:11.376Z,74.10
2022-10-07T00:03:39.749Z,74.10
2022-10-07T00:06:17.002Z,73.80
2022-10-07T00:08:50.425Z,73.60
2022-10-07T00:11:26.281Z,73.90
2022-10-07T00:13:57.929Z,74.00
2022-10-07T00:16:35.010Z,74.10
2022-10-07T00:19:08.009Z,74.60
2022-10-07T00:21:37.955Z,74.50
2022-10-07T00:24:08.088Z,74.20
2022-10-07T00:26:37.265Z,74.10
2022-10-07T00:29:07.111Z,74.00
2022-10-07T00:31:36.913Z,74.20
2022-10-07T00:34:05.849Z,74.40
2022-10-07T00:36:37.432Z,74.00
2022-10-07T00:39:10.054Z,74.00
2022-10-07T00:41:50.422Z,74.10
2022-10-07T00:44:30.037Z,74.10
2022-10-07T00:47:00.965Z,74.00
2022-10-07T00:49:30.206Z,73.80
2022-10-07T00:51:58.675Z,73.30
2022-10-07T00:54:26.481Z,73.20
2022-10-07T00:56:54.299Z,72.60
2022-10-07T00:59:22.238Z,71.80
2022-10-07T01:01:50.638Z,71.80
2022-10-07T01:04:20.312Z,71.30
2022-10-07T01:06:48.093Z,71.50
2022-10-07T01:09:16.146Z,71.50
2022-10-07T01:12:05.675Z,71.30
2022-10-07T01:14:52.419Z,70.50
2022-10-07T01:17:29.549Z,71.10
2022-10-07T01:20:12.431Z,71.50
2022-10-07T01:23:17.450Z,71.40
2022-10-07T01:25:50.674Z,71.30
2022-10-07T01:29:04.145Z,71.10
2022-10-07T01:31:39.169Z,71.00
2022-10-07T01:34:10.389Z,70.80
2022-10-07T01:36:40.474Z,70.80
2022-10-07T01:39:15.775Z,71.00
2022-10-07T01:41:43.812Z,70.80
2022-10-07T01:44:13.886Z,70.90
2022-10-07T01:46:44.013Z,70.90
2022-10-07T01:49:12.247Z,71.00
2022-10-07T01:51:58.082Z,70.80
2022-10-07T01:54:34.102Z,70.50
2022-10-07T01:57:39.173Z,70.70
2022-10-07T02:00:14.646Z,70.60
2022-10-07T02:03:10.849Z,70.80
2022-10-07T02:06:30.953Z,71.00
2022-10-07T02:09:06.533Z,71.20
2022-10-07T02:11:42.356Z,71.60
2022-10-07T02:14:29.664Z,71.70
2022-10-07T02:17:05.489Z,72.00
2022-10-07T02:19:39.486Z,73.00
2022-10-07T02:22:11.229Z,73.60
2022-10-07T02:24:40.591Z,73.90
2022-10-07T02:27:16.305Z,74.10
2022-10-07T02:29:51.469Z,74.70
2022-10-07T02:32:25.453Z,74.70
2022-10-07T02:35:00.231Z,74.90
2022-10-07T02:37:35.384Z,75.40
2022-10-07T02:40:12.222Z,75.80
2022-10-07T02:42:53.027Z,75.90
2022-10-07T02:45:50.094Z,76.00
2022-10-07T02:48:32.999Z,76.80
2022-10-07T02:51:06.786Z,77.40
2022-10-07T02:53:35.443Z,77.50
2022-10-07T02:56:05.280Z,78.50
2022-10-07T02:58:35.696Z,77.40
2022-10-07T03:01:05.840Z,77.00
2022-10-07T03:03:33.714Z,77.40
2022-10-07T03:06:06.263Z,77.40
2022-10-07T03:08:36.614Z,76.90
2022-10-07T03:11:04.446Z,76.50
2022-10-07T03:13:32.534Z,76.00
2022-10-07T03:16:05.576Z,75.30
2022-10-07T03:18:34.565Z,75.00
2022-10-07T03:21:18.595Z,75.20
2022-10-07T03:23:52.678Z,75.90
2022-10-07T03:26:22.330Z,76.30
2022-10-07T03:28:51.069Z,76.70
2022-10-07T03:31:20.364Z,77.00
2022-10-07T03:33:51.036Z,77.00
2022-10-07T03:36:19.883Z,76.30
2022-10-07T03:38:49.381Z,76.10
2022-10-07T03:41:19.342Z,75.70
2022-10-07T03:43:50.449Z,75.80
2022-10-07T03:46:22.495Z,75.40
2022-10-07T03:48:52.486Z,74.70
2022-10-07T03:51:20.930Z,74.30
2022-10-07T03:53:48.856Z,74.60
2022-10-07T03:56:17.561Z,74.60
2022-10-07T03:58:45.367Z,74.90
2022-10-07T04:01:17.898Z,75.20
2022-10-07T04:03:53.779Z,74.80
2022-10-07T04:06:21.720Z,74.10
2022-10-07T04:08:58.461Z,73.80
2022-10-07T04:11:26.467Z,73.90
2022-10-07T04:13:56.482Z,73.90
2022-10-07T04:16:28.180Z,73.90
2022-10-07T04:18:57.977Z,74.00
2022-10-07T04:21:28.333Z,74.30
2022-10-07T04:23:56.225Z,74.40
2022-10-07T04:26:24.152Z,74.30
2022-10-07T04:28:52.482Z,74.40
2022-10-07T04:31:23.024Z,74.50
2022-10-07T04:34:00.764Z,74.40
2022-10-07T04:36:36.155Z,74.40
2022-10-07T04:39:16.000Z,74.60
2022-10-07T04:41:54.914Z,75.10
2022-10-07T04:44:27.814Z,75.40
2022-10-07T04:47:03.935Z,75.50
2022-10-07T04:49:32.698Z,75.60
2022-10-07T04:52:02.030Z,75.90
2022-10-07T04:54:35.779Z,75.80
2022-10-07T04:57:03.835Z,76.00
2022-10-07T04:59:34.388Z,76.10
2022-10-07T05:02:02.962Z,76.20
2022-10-07T05:04:33.663Z,76.20
2022-10-07T05:07:03.306Z,76.40
2022-10-07T05:09:32.321Z,76.60
2022-10-07T05:12:01.164Z,77.10
2022-10-07T05:14:32.122Z,77.40
2022-10-07T05:17:00.596Z,77.70
2022-10-07T05:19:33.215Z,78.10
2022-10-07T05:22:01.407Z,78.20
2022-10-07T05:24:30.150Z,78.60
2022-10-07T05:26:58.033Z,79.00
2022-10-07T05:29:25.835Z,79.50
2022-10-07T05:31:55.213Z,79.80
2022-10-07T05:34:26.350Z,80.20
2022-10-07T05:36:55.735Z,80.60
2022-10-07T05:39:24.195Z,80.70
2022-10-07T05:41:56.241Z,80.50
2022-10-07T05:44:31.417Z,80.40
2022-10-07T05:47:02.055Z,81.30
2022-10-07T05:49:30.889Z,80.70
2022-10-07T05:51:59.485Z,80.80
2022-10-07T05:54:27.386Z,81.20
2022-10-07T05:56:57.195Z,81.20
2022-10-07T05:59:25.645Z,81.60
2022-10-07T06:01:57.854Z,81.80
2022-10-07T06:04:27.576Z,82.20
2022-10-07T06:06:55.446Z,82.10
2022-10-07T06:09:42.058Z,82.00
2022-10-07T06:12:35.046Z,82.00
2022-10-07T06:15:09.923Z,82.30
2022-10-07T06:17:45.170Z,82.80
2022-10-07T06:20:15.626Z,83.60
2022-10-07T06:22:44.652Z,84.10
2022-10-07T06:25:14.562Z,84.00
2022-10-07T06:27:43.444Z,83.70
2022-10-07T06:30:13.227Z,84.00
2022-10-07T06:32:41.037Z,84.80
2022-10-07T06:35:09.343Z,85.30
2022-10-07T06:37:39.256Z,85.40
2022-10-07T06:40:09.296Z,85.60
2022-10-07T06:42:37.184Z,85.80
2022-10-07T06:45:19.640Z,86.10
2022-10-07T06:47:49.880Z,86.30
2022-10-07T06:50:18.001Z,86.10
2022-10-07T06:52:45.818Z,86.10
2022-10-07T06:55:13.998Z,86.10
2022-10-07T06:57:45.990Z,86.20
2022-10-07T07:00:17.229Z,86.00
2022-10-07T07:02:45.943Z,86.10
2022-10-07T07:05:15.584Z,86.10
2022-10-07T07:07:45.725Z,86.00
2022-10-07T07:10:13.689Z,85.60
2022-10-07T07:12:45.093Z,85.60
2022-10-07T07:15:13.163Z,85.90
2022-10-07T07:17:41.493Z,85.90
2022-10-07T07:20:11.277Z,85.70
2022-10-07T07:22:40.720Z,85.50
2022-10-07T07:25:10.145Z,85.30
2022-10-07T07:27:39.070Z,84.70
2022-10-07T07:30:09.195Z,84.30
2022-10-07T07:32:37.012Z,84.10
2022-10-07T07:35:06.299Z,83.80
2022-10-07T07:37:34.400Z,83.80
2022-10-07T07:40:04.033Z,83.60
2022-10-07T07:42:33.634Z,83.20
2022-10-07T07:45:01.518Z,82.90
2022-10-07T07:47:29.866Z,82.80
2022-10-07T07:49:57.891Z,82.80
2022-10-07T07:52:30.684Z,82.50
2022-10-07T07:55:02.691Z,82.50
2022-10-07T07:57:31.299Z,82.40
2022-10-07T08:00:05.384Z,82.50
2022-10-07T08:02:43.054Z,82.30
2022-10-07T08:05:18.007Z,82.30
2022-10-07T08:07:50.026Z,82.30
2022-10-07T08:10:17.827Z,82.30
2022-10-07T08:12:45.638Z,82.10
2022-10-07T08:15:13.735Z,81.80
2022-10-07T08:17:41.565Z,81.70
2022-10-07T08:20:10.909Z,81.60
2022-10-07T08:22:39.678Z,81.30
2022-10-07T08:25:08.228Z,81.00
2022-10-07T08:27:36.582Z,81.00
2022-10-07T08:30:05.066Z,81.00
2022-10-07T08:32:32.897Z,80.80
2022-10-07T08:35:00.739Z,80.40
2022-10-07T08:37:28.705Z,80.20
2022-10-07T08:39:56.485Z,80.40
2022-10-07T08:42:39.633Z,80.10
2022-10-07T08:45:14.125Z,80.00
2022-10-07T08:47:46.108Z,79.60
2022-10-07T08:50:32.192Z,78.90
2022-10-07T08:53:07.024Z,78.20
2022-10-07T08:55:52.373Z,78.30
2022-10-07T08:58:43.423Z,78.00
2022-10-07T09:01:19.234Z,78.20
2022-10-07T09:04:24.517Z,77.70
2022-10-07T09:07:38.000Z,77.30
2022-10-07T09:10:28.479Z,77.00
2022-10-07T09:13:23.082Z,77.70
2022-10-07T09:16:26.586Z,77.80
2022-10-07T09:18:57.799Z,77.50
2022-10-07T09:21:41.528Z,76.50
2022-10-07T09:24:26.749Z,76.90
2022-10-07T09:27:01.689Z,76.30
2022-10-07T09:29:30.928Z,76.40
2022-10-07T09:31:59.246Z,76.00
2022-10-07T09:34:31.172Z,75.70
2022-10-07T09:37:26.763Z,75.50
2022-10-07T09:40:16.235Z,74.70
2022-10-07T09:42:46.031Z,75.20
2022-10-07T09:45:28.146Z,75.20
2022-10-07T09:48:04.600Z,74.70
2022-10-07T09:50:43.515Z,74.50
2022-10-07T09:53:33.554Z,74.60
2022-10-07T09:56:01.371Z,74.40
2022-10-07T09:58:32.181Z,74.60
2022-10-07T10:01:02.704Z,74.50
2022-10-07T10:03:34.585Z,74.50
2022-10-07T10:06:12.412Z,74.30
2022-10-07T10:08:43.999Z,74.30
2022-10-07T10:11:20.986Z,74.00
2022-10-07T10:13:51.818Z,73.40
2022-10-07T10:16:26.035Z,73.60
2022-10-07T10:19:18.980Z,73.40
2022-10-07T10:21:56.269Z,73.50
2022-10-07T10:24:45.899Z,73.60
2022-10-07T10:27:21.191Z,72.50
2022-10-07T10:30:05.536Z,72.50
2022-10-07T10:33:22.640Z,71.70
2022-10-07T10:36:21.604Z,71.00
2022-10-07T10:39:21.002Z,70.90
2022-10-07T10:42:00.051Z,70.80
2022-10-07T10:44:54.481Z,71.50
2022-10-07T10:48:00.902Z,70.60
2022-10-07T10:51:03.042Z,69.30
2022-10-07T10:53:56.827Z,68.60
2022-10-07T10:56:45.932Z,69.60
2022-10-07T10:59:34.583Z,69.60
2022-10-07T11:02:40.910Z,69.70
2022-10-07T11:05:33.960Z,68.50
2022-10-07T11:08:37.611Z,68.50
2022-10-07T11:11:27.928Z,68.70
2022-10-07T11:14:26.556Z,68.20
2022-10-07T11:17:04.720Z,69.40
2022-10-07T11:19:43.371Z,69.30
2022-10-07T11:22:23.796Z,68.50
2022-10-07T11:24:57.782Z,68.00
2022-10-07T11:27:25.380Z,68.20
2022-10-07T11:30:18.542Z,66.80
2022-10-07T11:33:12.752Z,67.70
2022-10-07T11:35:53.760Z,68.00
2022-10-07T11:38:34.464Z,68.30
2022-10-07T11:41:22.672Z,70.00
2022-10-07T11:43:57.128Z,69.50
2022-10-07T11:46:34.337Z,69.30
2022-10-07T11:49:40.029Z,68.80
2022-10-07T11:52:34.736Z,67.30
2022-10-07T11:55:16.315Z,68.80
2022-10-07T11:57:56.492Z,68.40
2022-10-07T12:00:32.991Z,67.80
2022-10-07T12:03:18.808Z,67.30
2022-10-07T12:05:49.816Z,67.60
2022-10-07T12:08:42.065Z,68.30
2022-10-07T12:11:12.888Z,67.50
2022-10-07T12:13:46.729Z,67.50
2022-10-07T12:16:32.265Z,67.00
2022-10-07T12:19:22.318Z,66.10
2022-10-07T12:22:00.205Z,65.40
2022-10-07T12:24:36.411Z,65.20
2022-10-07T12:27:13.411Z,65.70
2022-10-07T12:30:04.384Z,65.20
2022-10-07T12:32:52.054Z,64.90
2022-10-07T12:35:39.759Z,64.20
2022-10-07T12:38:14.778Z,64.30
2022-10-07T12:40:47.880Z,63.60
2022-10-07T12:43:34.604Z,64.80
2022-10-07T12:46:12.224Z,64.00
2022-10-07T12:49:04.106Z,63.80
2022-10-07T12:51:38.764Z,64.10
2022-10-07T12:54:44.820Z,63.40
2022-10-07T12:57:18.835Z,62.40
2022-10-07T13:00:10.639Z,63.20
2022-10-07T13:03:32.381Z,62.50
2022-10-07T13:06:27.625Z,62.30
2022-10-07T13:09:44.158Z,63.20
2022-10-07T13:12:56.005Z,62.60
2022-10-07T13:15:44.047Z,63.00
2022-10-07T13:18:31.555Z,63.30
2022-10-07T13:21:09.385Z,62.00
2022-10-07T13:23:37.584Z,62.80
2022-10-07T13:26:05.773Z,62.10
2022-10-07T13:28:45.415Z,62.10
2022-10-07T13:31:32.906Z,61.80
2022-10-07T13:34:14.207Z,61.70
2022-10-07T13:36:43.802Z,61.90
2022-10-07T13:39:23.155Z,60.50
2022-10-07T13:41:58.641Z,61.90
2022-10-07T13:44:32.117Z,61.60
2022-10-07T13:47:07.243Z,61.70
2022-10-07T13:49:48.345Z,60.90
2022-10-07T13:52:35.295Z,60.60
2022-10-07T13:55:03.437Z,60.80
2022-10-07T13:57:35.223Z,61.70
2022-10-07T14:00:04.554Z,61.10
2022-10-07T14:02:41.523Z,60.90
2022-10-07T14:05:25.900Z,61.00
2022-10-07T14:07:59.485Z,59.90
2022-10-07T14:10:31.040Z,59.70
2022-10-07T14:13:04.036Z,59.50
2022-10-07T14:15:36.205Z,59.70
2022-10-07T14:18:10.864Z,60.40
2022-10-07T14:20:51.071Z,61.40
2022-10-07T14:23:26.256Z,61.70
2022-10-07T14:25:57.488Z,62.10
2022-10-07T14:28:25.289Z,61.90
2022-10-07T14:31:41.994Z,63.00
2022-10-07T14:34:40.972Z,62.40
2022-10-07T14:37:31.842Z,62.90
2022-10-07T14:40:02.185Z,63.40
2022-10-07T14:42:36.938Z,64.00
2022-10-07T14:45:09.765Z,63.90
2022-10-07T14:47:41.463Z,64.50
2022-10-07T14:50:10.177Z,63.70
2022-10-07T14:52:47.041Z,64.60
2022-10-07T14:55:29.315Z,65.40
2022-10-07T14:57:57.129Z,66.10
2022-10-07T15:00:29.451Z,66.20
2022-10-07T15:02:58.266Z,66.80
2022-10-07T15:05:31.284Z,67.10
2022-10-07T15:08:00.253Z,67.30
2022-10-07T15:10:28.278Z,67.30
2022-10-07T15:12:56.821Z,67.40
2022-10-07T15:15:24.666Z,67.90
2022-10-07T15:17:52.431Z,68.00
2022-10-07T15:20:21.352Z,68.10
2022-10-07T15:22:51.191Z,68.30
2022-10-07T15:25:19.447Z,68.60
2022-10-07T15:27:47.287Z,69.60
2022-10-07T15:30:15.199Z,69.90
2022-10-07T15:32:43.655Z,70.50
2022-10-07T15:35:12.772Z,70.70
2022-10-07T15:37:46.025Z,70.70
2022-10-07T15:40:15.192Z,70.80
2022-10-07T15:42:44.921Z,71.20
2022-10-07T15:45:13.811Z,71.70
2022-10-07T15:47:41.745Z,71.80
2022-10-07T15:50:11.630Z,71.90
2022-10-07T15:52:41.895Z,72.10
2022-10-07T15:55:09.972Z,72.30
2022-10-07T15:57:37.862Z,72.80
2022-10-07T16:00:06.762Z,73.00
2022-10-07T16:02:39.776Z,73.10
2022-10-07T16:05:09.567Z,73.20
2022-10-07T16:07:37.345Z,73.30
2022-10-07T16:10:08.514Z,73.90
2022-10-07T16:12:41.288Z,73.80
2022-10-07T16:15:09.780Z,73.80
2022-10-07T16:17:37.634Z,73.80
2022-10-07T16:20:11.048Z,73.80
2022-10-07T16:22:39.328Z,74.10
2022-10-07T16:25:07.631Z,74.30
2022-10-07T16:27:53.876Z,74.60
2022-10-07T16:30:40.324Z,74.60
2022-10-07T16:33:08.693Z,74.90
2022-10-07T16:35:36.504Z,75.50
2022-10-07T16:38:04.983Z,75.50
2022-10-07T16:40:32.817Z,75.80
2022-10-07T16:43:00.674Z,76.20
2022-10-07T16:45:28.461Z,76.10
2022-10-07T16:47:56.741Z,76.50
2022-10-07T16:50:24.731Z,76.90
2022-10-07T16:52:53.594Z,77.20
2022-10-07T16:55:23.018Z,77.20
2022-10-07T16:57:53.118Z,77.40
2022-10-07T17:00:21.436Z,77.60
2022-10-07T17:02:49.243Z,78.00
2022-10-07T17:05:18.280Z,78.20
2022-10-07T17:07:46.569Z,78.30
2022-10-07T17:10:14.730Z,78.30
2022-10-07T17:12:44.012Z,78.80
2022-10-07T17:15:11.974Z,79.00
2022-10-07T17:17:39.858Z,79.40
2022-10-07T17:20:10.164Z,79.50
2022-10-07T17:22:38.029Z,79.90
2022-10-07T17:25:07.778Z,80.20
2022-10-07T17:27:36.259Z,80.40
2022-10-07T17:30:04.987Z,80.50
2022-10-07T17:32:32.857Z,80.60
2022-10-07T17:35:00.674Z,80.20
2022-10-07T17:37:28.562Z,79.50
2022-10-07T17:39:56.506Z,79.60
2022-10-07T17:42:24.270Z,79.60
2022-10-07T17:44:52.100Z,79.60
2022-10-07T17:47:20.551Z,79.80
2022-10-07T17:49:48.980Z,80.10
2022-10-07T17:52:17.178Z,80.30
2022-10-07T17:54:44.986Z,80.70
2022-10-07T17:57:12.814Z,81.10
2022-10-07T17:59:40.672Z,81.60
2022-10-07T18:02:10.471Z,82.00
2022-10-07T18:04:38.511Z,82.80
2022-10-07T18:07:06.337Z,83.40
2022-10-07T18:09:34.232Z,84.10
2022-10-07T18:12:20.951Z,84.70
2022-10-07T18:15:07.277Z,85.10
2022-10-07T18:17:36.848Z,85.40
2022-10-07T18:20:10.317Z,85.40
2022-10-07T18:22:44.187Z,85.20
2022-10-07T18:25:12.238Z,85.00
2022-10-07T18:27:40.698Z,85.00
2022-10-07T18:30:09.641Z,85.10
2022-10-07T18:32:37.519Z,85.00
2022-10-07T18:35:06.633Z,85.00
2022-10-07T18:37:34.668Z,85.00
2022-10-07T18:40:02.508Z,84.60
2022-10-07T18:42:30.398Z,84.40
2022-10-07T18:44:58.330Z,84.50
2022-10-07T18:47:26.322Z,84.50
2022-10-07T18:49:57.127Z,84.70
2022-10-07T18:52:24.947Z,84.90
2022-10-07T18:54:52.808Z,85.10
2022-10-07T18:57:20.944Z,85.30
2022-10-07T18:59:48.736Z,85.40
2022-10-07T19:02:16.674Z,85.60
2022-10-07T19:04:44.526Z,85.70
2022-10-07T19:07:12.467Z,86.00
2022-10-07T19:09:40.296Z,85.90
2022-10-07T19:12:28.043Z,86.00
2022-10-07T19:14:55.912Z,86.20
2022-10-07T19:17:24.262Z,86.20
2022-10-07T19:19:52.189Z,86.30
2022-10-07T19:22:19.997Z,86.30
2022-10-07T19:25:06.691Z,86.40
2022-10-07T19:27:34.479Z,86.60
2022-10-07T19:30:02.356Z,86.80
2022-10-07T19:32:30.170Z,87.10
2022-10-07T19:34:58.234Z,87.30
2022-10-07T19:37:26.395Z,87.10
2022-10-07T19:39:54.418Z,87.30
2022-10-07T19:42:22.279Z,87.40
2022-10-07T19:44:50.131Z,87.40
2022-10-07T19:47:18.793Z,87.50
2022-10-07T19:49:49.185Z,87.50
2022-10-07T19:52:17.050Z,87.80
2022-10-07T19:54:46.108Z,88.40
2022-10-07T19:57:14.355Z,88.70
2022-10-07T19:59:42.148Z,89.80
2022-10-07T20:02:11.974Z,89.00
2022-10-07T20:04:41.378Z,89.00
2022-10-07T20:07:09.174Z,89.70
2022-10-07T20:09:37.026Z,88.70
2022-10-07T20:12:05.091Z,88.70
2022-10-07T20:14:33.782Z,89.00
2022-10-07T20:17:01.959Z,89.50
2022-10-07T20:19:29.915Z,89.70
2022-10-07T20:22:01.102Z,90.20
2022-10-07T20:24:28.876Z,91.10
2022-10-07T20:26:56.715Z,91.50
2022-10-07T20:29:24.835Z,91.60
2022-10-07T20:31:53.468Z,91.60
2022-10-07T20:34:21.324Z,91.80
2022-10-07T20:36:50.545Z,92.30
2022-10-07T20:39:39.612Z,92.80
2022-10-07T20:42:22.047Z,93.30
2022-10-07T20:44:51.121Z,93.70
2022-10-07T20:47:20.822Z,93.80
2022-10-07T20:49:50.894Z,94.10
2022-10-07T20:52:25.615Z,94.10
2022-10-07T20:54:54.065Z,94.10
2022-10-07T20:57:25.045Z,94.30
2022-10-07T20:59:53.272Z,94.30
2022-10-07T21:02:23.335Z,94.50
2022-10-07T21:04:51.541Z,94.50
2022-10-07T21:07:19.803Z,94.30
2022-10-07T21:09:48.472Z,94.20
2022-10-07T21:12:18.095Z,94.00
2022-10-07T21:14:48.010Z,94.30
2022-10-07T21:17:16.797Z,94.50
2022-10-07T21:19:44.675Z,95.40
2022-10-07T21:22:12.614Z,94.80
2022-10-07T21:24:40.408Z,94.70
2022-10-07T21:27:08.611Z,94.60
2022-10-07T21:29:40.722Z,95.40
2022-10-07T21:32:10.866Z,94.80
2022-10-07T21:34:38.905Z,95.30
2022-10-07T21:37:06.979Z,95.60
2022-10-07T21:39:34.827Z,96.30
2022-10-07T21:42:02.665Z,96.80
2022-10-07T21:44:33.290Z,97.50
2022-10-07T21:47:01.316Z,98.20
2022-10-07T21:49:29.205Z,99.10
2022-10-07T21:51:57.046Z,99.90
2022-10-07T21:54:24.900Z,99.90
2022-10-07T21:56:52.774Z,99.90
2022-10-07T21:59:20.868Z,99.90
2022-10-07T22:01:48.729Z,99.90
2022-10-07T22:04:18.381Z,99.90
2022-10-07T22:07:16.269Z,99.90
2022-10-07T22:09:44.066Z,99.90
2022-10-07T22:12:11.884Z,99.90
2022-10-07T22:14:40.190Z,99.90
2022-10-07T22:17:09.029Z,99.90
2022-10-07T22:19:36.845Z,99.90
2022-10-07T22:22:04.641Z,99.90
2022-10-07T22:24:33.074Z,99.90
2022-10-07T22:27:01.861Z,99.90
2022-10-07T22:29:29.711Z,99.90
2022-10-07T22:31:58.029Z,99.90
2022-10-07T22:34:44.402Z,99.90
2022-10-07T22:37:12.253Z,99.90
2022-10-07T22:39:41.194Z,99.90
2022-10-07T22:42:09.085Z,99.90
2022-10-07T22:44:36.882Z,99.90
2022-10-07T22:47:04.738Z,99.90
2022-10-07T22:49:32.565Z,99.90
2022-10-07T22:52:00.481Z,99.90
2022-10-07T22:54:29.798Z,99.90
2022-10-07T22:56:57.738Z,99.90
2022-10-07T22:59:25.547Z,99.90
2022-10-07T23:01:53.522Z,99.90
2022-10-07T23:04:21.511Z,99.90
2022-10-07T23:06:49.577Z,99.90
2022-10-07T23:09:17.465Z,99.90
2022-10-07T23:11:45.901Z,99.90
2022-10-07T23:14:13.921Z,99.90
2022-10-07T23:16:41.998Z,99.90
2022-10-07T23:19:09.866Z,99.90
2022-10-07T23:21:37.677Z,99.90
2022-10-07T23:24:08.009Z,99.90
2022-10-07T23:26:37.682Z,99.90
2022-10-07T23:29:07.679Z,99.90
2022-10-07T23:31:35.930Z,99.90
2022-10-07T23:34:04.925Z,99.90
2022-10-07T23:36:34.957Z,99.90
2022-10-07T23:39:02.954Z,99.90
2022-10-07T23:41:32.957Z,99.90
2022-10-07T23:44:02.532Z,99.90
2022-10-07T23:46:36.382Z,99.90
2022-10-07T23:49:04.535Z,99.90
2022-10-07T23:51:32.973Z,99.90
2022-10-07T23:54:03.408Z,99.90
2022-10-07T23:56:32.113Z,99.90
2022-10-07T23:59:01.673Z,99.90
